sensor_id;sensor_type;location;lat;lon;timestamp;temperature;humidity
68648;SHT31;55632;51.962;16.116;2023-11-19T00:01:20;3.16;93.48
68648;SHT31;55632;51.962;16.116;2023-11-19T00:06:21;3.16;93.41
68648;SHT31;55632;51.962;16.116;2023-11-19T00:11:22;3.15;93.49
68648;SHT31;55632;51.962;16.116;2023-11-19T00:16:25;3.13;93.42
68648;SHT31;55632;51.962;16.116;2023-11-19T00:21:28;3.15;93.41
68648;SHT31;55632;51.962;16.116;2023-11-19T00:26:29;3.10;93.55
68648;SHT31;55632;51.962;16.116;2023-11-19T00:31:31;3.09;93.49
68648;SHT31;55632;51.962;16.116;2023-11-19T00:36:32;3.09;93.46
68648;SHT31;55632;51.962;16.116;2023-11-19T00:41:33;3.08;93.53
68648;SHT31;55632;51.962;16.116;2023-11-19T00:46:37;3.08;93.59
68648;SHT31;55632;51.962;16.116;2023-11-19T00:51:40;3.06;93.64
68648;SHT31;55632;51.962;16.116;2023-11-19T00:56:41;3.03;93.69
68648;SHT31;55632;51.962;16.116;2023-11-19T01:01:45;3.03;93.69
68648;SHT31;55632;51.962;16.116;2023-11-19T01:06:45;3.02;93.80
68648;SHT31;55632;51.962;16.116;2023-11-19T01:11:46;3.05;93.73
68648;SHT31;55632;51.962;16.116;2023-11-19T01:16:47;3.06;93.82
68648;SHT31;55632;51.962;16.116;2023-11-19T01:21:50;3.08;93.87
68648;SHT31;55632;51.962;16.116;2023-11-19T01:26:51;3.05;93.81
68648;SHT31;55632;51.962;16.116;2023-11-19T01:31:54;3.08;93.80
68648;SHT31;55632;51.962;16.116;2023-11-19T01:36:55;3.05;93.97
68648;SHT31;55632;51.962;16.116;2023-11-19T01:41:56;3.06;93.94
68648;SHT31;55632;51.962;16.116;2023-11-19T01:46:56;3.09;93.94
68648;SHT31;55632;51.962;16.116;2023-11-19T01:51:58;3.08;93.99
68648;SHT31;55632;51.962;16.116;2023-11-19T01:56:59;3.06;94.05
68648;SHT31;55632;51.962;16.116;2023-11-19T02:02:05;3.05;94.04
68648;SHT31;55632;51.962;16.116;2023-11-19T02:07:06;3.10;93.98
68648;SHT31;55632;51.962;16.116;2023-11-19T02:12:10;3.12;94.08
68648;SHT31;55632;51.962;16.116;2023-11-19T02:17:28;3.16;94.05
68648;SHT31;55632;51.962;16.116;2023-11-19T02:22:31;3.19;94.05
68648;SHT31;55632;51.962;16.116;2023-11-19T02:32:41;3.20;94.04
68648;SHT31;55632;51.962;16.116;2023-11-19T02:37:42;3.17;94.05
68648;SHT31;55632;51.962;16.116;2023-11-19T02:42:45;3.20;94.04
68648;SHT31;55632;51.962;16.116;2023-11-19T02:47:49;3.19;94.05
68648;SHT31;55632;51.962;16.116;2023-11-19T02:52:52;3.19;94.03
68648;SHT31;55632;51.962;16.116;2023-11-19T02:57:56;3.20;93.98
68648;SHT31;55632;51.962;16.116;2023-11-19T03:02:59;3.22;93.97
68648;SHT31;55632;51.962;16.116;2023-11-19T03:08:06;3.16;93.84
68648;SHT31;55632;51.962;16.116;2023-11-19T03:13:11;3.17;93.78
68648;SHT31;55632;51.962;16.116;2023-11-19T03:18:15;3.20;93.76
68648;SHT31;55632;51.962;16.116;2023-11-19T03:23:16;3.17;93.76
68648;SHT31;55632;51.962;16.116;2023-11-19T03:28:17;3.20;93.65
68648;SHT31;55632;51.962;16.116;2023-11-19T03:33:17;3.19;93.67
68648;SHT31;55632;51.962;16.116;2023-11-19T03:38:18;3.19;93.62
68648;SHT31;55632;51.962;16.116;2023-11-19T03:43:18;3.23;93.61
68648;SHT31;55632;51.962;16.116;2023-11-19T03:48:19;3.17;93.52
68648;SHT31;55632;51.962;16.116;2023-11-19T03:53:20;3.17;93.47
68648;SHT31;55632;51.962;16.116;2023-11-19T03:58:21;3.20;93.53
68648;SHT31;55632;51.962;16.116;2023-11-19T04:03:22;3.17;93.53
68648;SHT31;55632;51.962;16.116;2023-11-19T04:08:23;3.17;93.50
68648;SHT31;55632;51.962;16.116;2023-11-19T04:13:24;3.17;93.39
68648;SHT31;55632;51.962;16.116;2023-11-19T04:18:24;3.17;93.35
68648;SHT31;55632;51.962;16.116;2023-11-19T04:23:25;3.16;93.30
68648;SHT31;55632;51.962;16.116;2023-11-19T04:28:25;3.13;93.33
68648;SHT31;55632;51.962;16.116;2023-11-19T04:33:29;3.12;93.27
68648;SHT31;55632;51.962;16.116;2023-11-19T04:38:30;3.17;93.21
68648;SHT31;55632;51.962;16.116;2023-11-19T04:43:31;3.17;93.27
68648;SHT31;55632;51.962;16.116;2023-11-19T04:48:35;3.22;93.30
68648;SHT31;55632;51.962;16.116;2023-11-19T04:53:38;3.23;93.26
68648;SHT31;55632;51.962;16.116;2023-11-19T04:58:39;3.26;93.14
68648;SHT31;55632;51.962;16.116;2023-11-19T05:03:39;3.26;93.18
68648;SHT31;55632;51.962;16.116;2023-11-19T05:08:40;3.28;93.15
68648;SHT31;55632;51.962;16.116;2023-11-19T05:13:43;3.30;93.13
68648;SHT31;55632;51.962;16.116;2023-11-19T05:18:46;3.33;93.04
68648;SHT31;55632;51.962;16.116;2023-11-19T05:23:47;3.31;93.04
68648;SHT31;55632;51.962;16.116;2023-11-19T05:28:50;3.31;93.01
68648;SHT31;55632;51.962;16.116;2023-11-19T05:33:51;3.28;92.89
68648;SHT31;55632;51.962;16.116;2023-11-19T05:38:52;3.28;92.76
68648;SHT31;55632;51.962;16.116;2023-11-19T05:43:52;3.23;92.71
68648;SHT31;55632;51.962;16.116;2023-11-19T05:48:53;3.23;92.64
68648;SHT31;55632;51.962;16.116;2023-11-19T05:53:54;3.19;92.47
68648;SHT31;55632;51.962;16.116;2023-11-19T05:58:58;3.19;92.33
68648;SHT31;55632;51.962;16.116;2023-11-19T06:04:04;3.16;92.30
68648;SHT31;55632;51.962;16.116;2023-11-19T06:09:05;3.16;92.10
68648;SHT31;55632;51.962;16.116;2023-11-19T06:14:06;3.10;92.03
68648;SHT31;55632;51.962;16.116;2023-11-19T06:19:07;3.08;91.77
68648;SHT31;55632;51.962;16.116;2023-11-19T06:24:08;3.15;91.70
68648;SHT31;55632;51.962;16.116;2023-11-19T06:29:09;3.15;91.68
68648;SHT31;55632;51.962;16.116;2023-11-19T06:34:10;3.17;91.66
68648;SHT31;55632;51.962;16.116;2023-11-19T06:39:10;3.13;91.55
68648;SHT31;55632;51.962;16.116;2023-11-19T06:44:11;3.16;91.61
68648;SHT31;55632;51.962;16.116;2023-11-19T06:49:12;3.15;91.75
68648;SHT31;55632;51.962;16.116;2023-11-19T06:54:13;3.15;91.79
68648;SHT31;55632;51.962;16.116;2023-11-19T06:59:14;3.16;91.70
68648;SHT31;55632;51.962;16.116;2023-11-19T07:04:15;3.15;91.75
68648;SHT31;55632;51.962;16.116;2023-11-19T07:09:15;3.15;91.80
68648;SHT31;55632;51.962;16.116;2023-11-19T07:14:17;3.12;91.79
68648;SHT31;55632;51.962;16.116;2023-11-19T07:19:18;3.10;91.79
68648;SHT31;55632;51.962;16.116;2023-11-19T07:24:21;3.08;91.74
68648;SHT31;55632;51.962;16.116;2023-11-19T07:29:22;3.08;91.71
68648;SHT31;55632;51.962;16.116;2023-11-19T07:34:24;3.02;91.80
68648;SHT31;55632;51.962;16.116;2023-11-19T07:39:25;3.00;91.89
68648;SHT31;55632;51.962;16.116;2023-11-19T07:44:26;2.99;92.03
68648;SHT31;55632;51.962;16.116;2023-11-19T07:49:27;2.92;92.15
68648;SHT31;55632;51.962;16.116;2023-11-19T07:54:28;2.91;92.42
68648;SHT31;55632;51.962;16.116;2023-11-19T07:59:29;2.87;92.54
68648;SHT31;55632;51.962;16.116;2023-11-19T08:04:29;2.88;92.83
68648;SHT31;55632;51.962;16.116;2023-11-19T08:09:30;2.91;93.12
68648;SHT31;55632;51.962;16.116;2023-11-19T08:14:31;2.89;93.41
68648;SHT31;55632;51.962;16.116;2023-11-19T08:19:33;2.96;93.47
68648;SHT31;55632;51.962;16.116;2023-11-19T08:24:34;3.02;93.75
68648;SHT31;55632;51.962;16.116;2023-11-19T08:29:35;3.08;93.91
68648;SHT31;55632;51.962;16.116;2023-11-19T08:34:35;3.15;94.73
68648;SHT31;55632;51.962;16.116;2023-11-19T08:39:37;3.16;95.48
68648;SHT31;55632;51.962;16.116;2023-11-19T08:44:38;3.20;96.00
68648;SHT31;55632;51.962;16.116;2023-11-19T08:49:39;3.23;96.13
68648;SHT31;55632;51.962;16.116;2023-11-19T08:54:43;3.30;96.26
68648;SHT31;55632;51.962;16.116;2023-11-19T08:59:44;3.30;96.32
68648;SHT31;55632;51.962;16.116;2023-11-19T09:04:46;3.36;96.48
68648;SHT31;55632;51.962;16.116;2023-11-19T09:09:47;3.41;96.88
68648;SHT31;55632;51.962;16.116;2023-11-19T09:14:52;3.43;96.67
68648;SHT31;55632;51.962;16.116;2023-11-19T09:19:54;3.50;96.71
68648;SHT31;55632;51.962;16.116;2023-11-19T09:24:55;3.51;96.92
68648;SHT31;55632;51.962;16.116;2023-11-19T09:29:56;3.57;97.00
68648;SHT31;55632;51.962;16.116;2023-11-19T09:34:59;3.61;97.20
68648;SHT31;55632;51.962;16.116;2023-11-19T09:40:01;3.65;97.26
68648;SHT31;55632;51.962;16.116;2023-11-19T09:45:09;3.68;97.51
68648;SHT31;55632;51.962;16.116;2023-11-19T09:50:34;3.74;97.57
68648;SHT31;55632;51.962;16.116;2023-11-19T09:55:35;3.77;97.52
68648;SHT31;55632;51.962;16.116;2023-11-19T10:00:37;3.81;97.71
68648;SHT31;55632;51.962;16.116;2023-11-19T10:05:38;3.85;97.82
68648;SHT31;55632;51.962;16.116;2023-11-19T10:10:39;3.90;97.88
68648;SHT31;55632;51.962;16.116;2023-11-19T10:15:40;3.96;98.16
68648;SHT31;55632;51.962;16.116;2023-11-19T10:20:42;3.96;98.10
68648;SHT31;55632;51.962;16.116;2023-11-19T10:25:46;4.02;98.08
68648;SHT31;55632;51.962;16.116;2023-11-19T10:30:48;4.09;98.27
68648;SHT31;55632;51.962;16.116;2023-11-19T10:35:52;4.17;98.25
68648;SHT31;55632;51.962;16.116;2023-11-19T10:41:00;4.27;98.39
68648;SHT31;55632;51.962;16.116;2023-11-19T10:46:10;4.38;98.48
68648;SHT31;55632;51.962;16.116;2023-11-19T10:51:13;4.45;98.39
68648;SHT31;55632;51.962;16.116;2023-11-19T10:56:30;4.49;98.28
68648;SHT31;55632;51.962;16.116;2023-11-19T11:02:07;4.52;98.33
68648;SHT31;55632;51.962;16.116;2023-11-19T11:07:38;4.59;98.35
68648;SHT31;55632;51.962;16.116;2023-11-19T11:12:50;4.65;98.42
68648;SHT31;55632;51.962;16.116;2023-11-19T11:18:01;4.73;98.49
68648;SHT31;55632;51.962;16.116;2023-11-19T11:28:41;4.90;98.57
68648;SHT31;55632;51.962;16.116;2023-11-19T11:39:16;5.01;98.62
68648;SHT31;55632;51.962;16.116;2023-11-19T11:44:17;5.07;98.46
68648;SHT31;55632;51.962;16.116;2023-11-19T11:49:25;5.10;98.41
68648;SHT31;55632;51.962;16.116;2023-11-19T11:54:29;5.13;98.47
68648;SHT31;55632;51.962;16.116;2023-11-19T11:59:43;5.23;98.50
68648;SHT31;55632;51.962;16.116;2023-11-19T12:04:48;5.34;98.57
68648;SHT31;55632;51.962;16.116;2023-11-19T12:10:06;5.45;98.59
68648;SHT31;55632;51.962;16.116;2023-11-19T12:15:16;5.55;98.66
68648;SHT31;55632;51.962;16.116;2023-11-19T12:20:33;5.62;98.59
68648;SHT31;55632;51.962;16.116;2023-11-19T12:25:37;5.70;98.57
68648;SHT31;55632;51.962;16.116;2023-11-19T12:30:38;5.76;98.65
68648;SHT31;55632;51.962;16.116;2023-11-19T12:35:44;5.90;98.80
68648;SHT31;55632;51.962;16.116;2023-11-19T12:40:47;6.03;98.79
68648;SHT31;55632;51.962;16.116;2023-11-19T12:45:48;6.13;98.80
68648;SHT31;55632;51.962;16.116;2023-11-19T12:56:07;6.28;98.78
68648;SHT31;55632;51.962;16.116;2023-11-19T13:01:09;6.34;98.96
68648;SHT31;55632;51.962;16.116;2023-11-19T13:06:14;6.46;98.98
68648;SHT31;55632;51.962;16.116;2023-11-19T13:11:33;6.62;99.02
68648;SHT31;55632;51.962;16.116;2023-11-19T13:16:36;6.77;99.09
68648;SHT31;55632;51.962;16.116;2023-11-19T13:21:38;6.88;99.02
68648;SHT31;55632;51.962;16.116;2023-11-19T13:26:40;6.97;99.01
68648;SHT31;55632;51.962;16.116;2023-11-19T13:31:40;7.04;98.99
68648;SHT31;55632;51.962;16.116;2023-11-19T13:36:41;7.14;98.96
68648;SHT31;55632;51.962;16.116;2023-11-19T13:41:42;7.18;98.98
68648;SHT31;55632;51.962;16.116;2023-11-19T13:46:45;7.22;99.01
68648;SHT31;55632;51.962;16.116;2023-11-19T13:51:46;7.28;99.02
68648;SHT31;55632;51.962;16.116;2023-11-19T13:56:47;7.30;99.05
68648;SHT31;55632;51.962;16.116;2023-11-19T14:01:48;7.35;99.06
68648;SHT31;55632;51.962;16.116;2023-11-19T14:06:50;7.42;99.06
68648;SHT31;55632;51.962;16.116;2023-11-19T14:11:51;7.49;99.09
68648;SHT31;55632;51.962;16.116;2023-11-19T14:16:52;7.53;99.13
68648;SHT31;55632;51.962;16.116;2023-11-19T14:21:53;7.57;99.12
68648;SHT31;55632;51.962;16.116;2023-11-19T14:26:55;7.62;99.09
68648;SHT31;55632;51.962;16.116;2023-11-19T14:32:00;7.64;99.08
68648;SHT31;55632;51.962;16.116;2023-11-19T14:37:01;7.66;99.11
68648;SHT31;55632;51.962;16.116;2023-11-19T14:42:05;7.69;99.08
68648;SHT31;55632;51.962;16.116;2023-11-19T14:59:52;7.75;99.15
68648;SHT31;55632;51.962;16.116;2023-11-19T15:04:53;7.75;99.12
68648;SHT31;55632;51.962;16.116;2023-11-19T15:09:54;7.81;99.16
68648;SHT31;55632;51.962;16.116;2023-11-19T15:14:55;7.88;99.19
68648;SHT31;55632;51.962;16.116;2023-11-19T15:19:56;7.94;99.31
68648;SHT31;55632;51.962;16.116;2023-11-19T15:24:57;8.06;99.35
68648;SHT31;55632;51.962;16.116;2023-11-19T15:29:58;8.19;99.37
68648;SHT31;55632;51.962;16.116;2023-11-19T15:34:59;8.29;99.38
68648;SHT31;55632;51.962;16.116;2023-11-19T15:40:02;8.43;99.40
68648;SHT31;55632;51.962;16.116;2023-11-19T15:45:08;8.54;99.36
68648;SHT31;55632;51.962;16.116;2023-11-19T15:50:10;8.64;99.37
68648;SHT31;55632;51.962;16.116;2023-11-19T15:55:11;8.75;99.37
68648;SHT31;55632;51.962;16.116;2023-11-19T16:00:12;8.82;99.31
68648;SHT31;55632;51.962;16.116;2023-11-19T16:05:17;8.85;99.27
68648;SHT31;55632;51.962;16.116;2023-11-19T16:10:20;8.92;99.18
68648;SHT31;55632;51.962;16.116;2023-11-19T16:15:21;8.93;99.20
68648;SHT31;55632;51.962;16.116;2023-11-19T16:20:22;8.89;99.14
68648;SHT31;55632;51.962;16.116;2023-11-19T16:25:25;8.87;99.13
68648;SHT31;55632;51.962;16.116;2023-11-19T16:30:26;8.81;99.10
68648;SHT31;55632;51.962;16.116;2023-11-19T16:35:27;8.79;99.09
68648;SHT31;55632;51.962;16.116;2023-11-19T16:40:28;8.79;99.13
68648;SHT31;55632;51.962;16.116;2023-11-19T16:45:29;8.75;99.20
68648;SHT31;55632;51.962;16.116;2023-11-19T16:50:30;8.74;99.17
68648;SHT31;55632;51.962;16.116;2023-11-19T16:55:31;8.75;99.19
68648;SHT31;55632;51.962;16.116;2023-11-19T17:25:41;8.78;99.23
68648;SHT31;55632;51.962;16.116;2023-11-19T17:30:42;8.82;99.27
68648;SHT31;55632;51.962;16.116;2023-11-19T17:35:43;8.88;99.30
68648;SHT31;55632;51.962;16.116;2023-11-19T17:40:44;8.93;99.25
68648;SHT31;55632;51.962;16.116;2023-11-19T17:45:47;8.96;99.22
68648;SHT31;55632;51.962;16.116;2023-11-19T17:50:48;8.96;99.18
68648;SHT31;55632;51.962;16.116;2023-11-19T17:55:50;8.98;99.15
68648;SHT31;55632;51.962;16.116;2023-11-19T18:00:51;8.98;99.12
68648;SHT31;55632;51.962;16.116;2023-11-19T18:05:52;8.98;99.09
68648;SHT31;55632;51.962;16.116;2023-11-19T18:10:53;9.02;99.11
68648;SHT31;55632;51.962;16.116;2023-11-19T18:15:55;9.04;99.07
68648;SHT31;55632;51.962;16.116;2023-11-19T18:20:56;9.12;99.11
68648;SHT31;55632;51.962;16.116;2023-11-19T18:25:57;9.13;99.08
68648;SHT31;55632;51.962;16.116;2023-11-19T18:30:58;9.16;99.05
68648;SHT31;55632;51.962;16.116;2023-11-19T18:36:02;9.15;98.98
68648;SHT31;55632;51.962;16.116;2023-11-19T18:41:04;9.15;99.03
68648;SHT31;55632;51.962;16.116;2023-11-19T18:46:05;9.15;99.01
68648;SHT31;55632;51.962;16.116;2023-11-19T18:51:07;9.12;98.96
68648;SHT31;55632;51.962;16.116;2023-11-19T18:56:08;9.05;98.95
68648;SHT31;55632;51.962;16.116;2023-11-19T19:01:10;8.99;98.92
68648;SHT31;55632;51.962;16.116;2023-11-19T19:06:13;8.93;98.91
68648;SHT31;55632;51.962;16.116;2023-11-19T19:11:14;8.87;98.88
68648;SHT31;55632;51.962;16.116;2023-11-19T19:16:15;8.78;98.82
68648;SHT31;55632;51.962;16.116;2023-11-19T19:21:17;8.72;98.83
68648;SHT31;55632;51.962;16.116;2023-11-19T19:26:18;8.68;98.87
68648;SHT31;55632;51.962;16.116;2023-11-19T19:31:19;8.68;98.94
68648;SHT31;55632;51.962;16.116;2023-11-19T19:36:21;8.71;99.01
68648;SHT31;55632;51.962;16.116;2023-11-19T19:41:22;8.75;99.06
68648;SHT31;55632;51.962;16.116;2023-11-19T19:46:24;8.77;99.06
68648;SHT31;55632;51.962;16.116;2023-11-19T19:51:25;8.77;99.04
68648;SHT31;55632;51.962;16.116;2023-11-19T19:56:25;8.78;99.04
68648;SHT31;55632;51.962;16.116;2023-11-19T20:01:26;8.81;99.03
68648;SHT31;55632;51.962;16.116;2023-11-19T20:06:38;8.85;99.03
68648;SHT31;55632;51.962;16.116;2023-11-19T20:11:39;8.87;99.04
68648;SHT31;55632;51.962;16.116;2023-11-19T20:16:44;8.87;99.03
68648;SHT31;55632;51.962;16.116;2023-11-19T20:21:44;8.91;99.04
68648;SHT31;55632;51.962;16.116;2023-11-19T20:26:45;8.91;98.99
68648;SHT31;55632;51.962;16.116;2023-11-19T20:31:55;8.93;99.02
68648;SHT31;55632;51.962;16.116;2023-11-19T20:37:00;8.92;99.04
68648;SHT31;55632;51.962;16.116;2023-11-19T20:42:01;8.93;99.08
68648;SHT31;55632;51.962;16.116;2023-11-19T20:47:04;8.95;99.05
68648;SHT31;55632;51.962;16.116;2023-11-19T20:52:05;8.93;99.07
68648;SHT31;55632;51.962;16.116;2023-11-19T20:57:06;8.96;99.01
68648;SHT31;55632;51.962;16.116;2023-11-19T21:02:07;8.96;99.00
68648;SHT31;55632;51.962;16.116;2023-11-19T21:07:09;8.93;98.94
68648;SHT31;55632;51.962;16.116;2023-11-19T21:12:10;8.88;98.90
68648;SHT31;55632;51.962;16.116;2023-11-19T21:17:11;8.84;98.90
68648;SHT31;55632;51.962;16.116;2023-11-19T21:22:13;8.87;98.96
68648;SHT31;55632;51.962;16.116;2023-11-19T21:27:14;8.88;98.95
68648;SHT31;55632;51.962;16.116;2023-11-19T21:32:15;8.87;98.97
68648;SHT31;55632;51.962;16.116;2023-11-19T21:37:16;8.88;98.96
68648;SHT31;55632;51.962;16.116;2023-11-19T21:42:17;8.91;98.97
68648;SHT31;55632;51.962;16.116;2023-11-19T21:47:17;8.89;98.91
68648;SHT31;55632;51.962;16.116;2023-11-19T21:52:18;8.91;98.87
68648;SHT31;55632;51.962;16.116;2023-11-19T21:57:19;8.92;98.82
68648;SHT31;55632;51.962;16.116;2023-11-19T22:02:23;8.88;98.85
68648;SHT31;55632;51.962;16.116;2023-11-19T22:07:24;8.89;98.82
68648;SHT31;55632;51.962;16.116;2023-11-19T22:12:26;8.91;98.83
68648;SHT31;55632;51.962;16.116;2023-11-19T22:17:27;8.89;98.84
68648;SHT31;55632;51.962;16.116;2023-11-19T22:22:28;8.89;98.84
68648;SHT31;55632;51.962;16.116;2023-11-19T22:27:29;8.85;98.80
68648;SHT31;55632;51.962;16.116;2023-11-19T22:32:30;8.82;98.82
68648;SHT31;55632;51.962;16.116;2023-11-19T22:37:31;8.85;98.82
68648;SHT31;55632;51.962;16.116;2023-11-19T22:42:32;8.84;98.84
68648;SHT31;55632;51.962;16.116;2023-11-19T22:47:35;8.87;98.83
68648;SHT31;55632;51.962;16.116;2023-11-19T22:52:36;8.84;98.80
68648;SHT31;55632;51.962;16.116;2023-11-19T22:57:37;8.84;98.79
68648;SHT31;55632;51.962;16.116;2023-11-19T23:02:41;8.85;98.78
68648;SHT31;55632;51.962;16.116;2023-11-19T23:07:42;8.85;98.84
68648;SHT31;55632;51.962;16.116;2023-11-19T23:12:43;8.87;98.83
68648;SHT31;55632;51.962;16.116;2023-11-19T23:17:45;8.91;98.89
68648;SHT31;55632;51.962;16.116;2023-11-19T23:22:48;8.93;98.89
68648;SHT31;55632;51.962;16.116;2023-11-19T23:27:49;8.93;98.94
68648;SHT31;55632;51.962;16.116;2023-11-19T23:32:50;8.93;98.90
68648;SHT31;55632;51.962;16.116;2023-11-19T23:37:51;8.95;98.93
68648;SHT31;55632;51.962;16.116;2023-11-19T23:42:52;8.96;98.99
68648;SHT31;55632;51.962;16.116;2023-11-19T23:47:53;8.95;98.92
68648;SHT31;55632;51.962;16.116;2023-11-19T23:52:57;8.96;98.87
68648;SHT31;55632;51.962;16.116;2023-11-19T23:57:57;8.96;98.87
